< Typhoon 202204 2022 Season Typhoon 202206 >
Typhoon 202205 (SONGDA)
General InformationTrack Information on Google MapsDetailed Wind InformationForecast History on Google MapsAccess Analytics MapList of All Images || NewsDisaster Info.WeblogTrackbackTyphoon FrontTwiphoonTyphoon Now!Typhoon ImaginationJMA Disaster Info. XMLResourceGoogle EarthGE AnimationAtom FeedGeoJSON
Detalied Best Track (Time Zone = UTC)
Year Month Day Hour Lat. Long. Pressure (hPa) Wind (kt) Class Image Chart
2022 7 26 12 15.5 143.4 1006 30 2 Image Chart
2022 7 26 15 15.9 143.4 1006 30 2 Image Chart
2022 7 26 18 16.6 142.9 1004 30 2 Image Chart
2022 7 26 21 17.1 142.8 1004 30 2 Image Chart
2022 7 27 00 16.3 142.4 1004 30 2 Image Chart
2022 7 27 03 15.9 142.2 1004 30 2 Image Chart
2022 7 27 06 15.8 141.9 1004 30 2 Image Chart
2022 7 27 09 16.3 141.6 1004 30 2 Image Chart
2022 7 27 12 17.1 141.1 1004 30 2 Image Chart
2022 7 27 15 17.9 140.7 1004 30 2 Image Chart
2022 7 27 18 18.6 140.3 1002 30 2 Image Chart
2022 7 27 21 19.0 140.1 1002 30 2 Image Chart
2022 7 28 00 19.3 139.6 1002 30 2 Image Chart
2022 7 28 03 19.8 139.6 1002 30 2 Image Chart
2022 7 28 06 20.6 139.6 1002 30 2 Image Chart
2022 7 28 09 21.9 139.1 1002 30 2 Image Chart
2022 7 28 12 22.5 139.0 1002 35 3 Image Chart
2022 7 28 15 24.2 138.0 1002 35 3 Image Chart
2022 7 28 18 25.3 137.7 1002 35 3 Image Chart
2022 7 28 21 26.4 136.6 1002 35 3 Image Chart
2022 7 29 00 27.6 135.2 1002 35 3 Image Chart
2022 7 29 03 28.6 133.7 1002 35 3 Image Chart
2022 7 29 06 29.1 132.1 1002 35 3 Image Chart
2022 7 29 09 29.6 131.1 1002 35 3 Image Chart
2022 7 29 12 29.6 130.1 1000 40 3 Image Chart
2022 7 29 15 30.4 129.1 1000 40 3 Image Chart
2022 7 29 18 31.0 128.6 1002 35 3 Image Chart
2022 7 29 21 31.3 127.4 1002 35 3 Image Chart
2022 7 30 00 31.4 126.2 1002 35 3 Image Chart
2022 7 30 03 31.6 125.3 1002 35 3 Image Chart
2022 7 30 06 32.0 124.9 1002 35 3 Image Chart
2022 7 30 09 32.4 124.6 1000 35 3 Image Chart
2022 7 30 12 32.7 124.3 1000 35 3 Image Chart
2022 7 30 15 33.1 123.8 1000 35 3 Image Chart
2022 7 30 18 33.3 123.5 998 35 3 Image Chart
2022 7 30 21 33.5 123.3 998 35 3 Image Chart
2022 7 31 00 33.5 123.1 996 35 3 Image Chart
2022 7 31 03 33.5 123.0 996 35 3 Image Chart
2022 7 31 06 34.1 123.3 996 35 3 Image Chart
2022 7 31 09 34.2 123.1 996 35 3 Image Chart
2022 7 31 12 34.5 123.1 996 35 3 Image Chart
2022 7 31 15 34.5 123.1 996 35 3 Image Chart
2022 7 31 18 35.0 123.0 998 0 2 Image Chart
Japan Meteorological Agency Best Track Data | Correction Date : 2022-07-31
< Typhoon 202204 2022 Season Typhoon 202206 >

Help